createdAt,value
2022-08-14T11:22:55.567Z,10840.00
2022-08-14T11:23:40.689Z,11192.00
2022-08-14T11:24:50.788Z,11404.00
2022-08-14T11:25:43.758Z,11552.00
2022-08-14T11:26:38.925Z,11592.00
2022-08-14T11:27:38.906Z,11376.00
2022-08-14T11:28:47.053Z,10864.00
2022-08-14T11:29:38.877Z,10852.00
2022-08-14T11:30:51.677Z,10624.00
2022-08-14T11:31:39.320Z,10364.00
2022-08-14T11:32:38.857Z,10200.00
2022-08-14T11:33:38.840Z,9876.00
2022-08-14T11:34:38.839Z,9420.00
2022-08-14T11:35:47.436Z,9248.00
2022-08-14T11:37:09.436Z,9316.00
2022-08-14T11:37:40.429Z,9624.00
2022-08-14T11:38:38.800Z,10088.00
2022-08-14T11:39:38.830Z,10520.00
2022-08-14T11:40:38.789Z,11116.00
2022-08-14T11:41:42.821Z,11720.00
2022-08-14T11:42:57.848Z,11584.00
2022-08-14T11:43:38.758Z,11204.00
2022-08-14T11:44:45.448Z,10912.00
2022-08-14T11:45:38.738Z,10552.00
2022-08-14T11:46:38.755Z,10064.00
2022-08-14T11:47:44.186Z,9712.00
2022-08-14T11:49:02.890Z,9332.00
2022-08-14T11:49:38.711Z,8952.00
2022-08-14T11:50:38.711Z,8624.00
2022-08-14T11:51:53.915Z,8268.00
2022-08-14T11:52:40.209Z,8108.00
2022-08-14T11:53:42.259Z,8040.00
2022-08-14T11:54:38.679Z,8076.00
2022-08-14T11:55:39.325Z,8296.00
2022-08-14T11:56:38.683Z,8420.00
2022-08-14T11:57:39.568Z,8748.00
2022-08-14T11:58:38.641Z,9032.00
2022-08-14T11:59:44.343Z,9168.00
2022-08-14T12:00:45.956Z,9132.00
2022-08-14T12:01:41.117Z,8960.00
2022-08-14T12:03:02.507Z,8828.00
2022-08-14T12:03:46.054Z,8712.00
2022-08-14T12:04:38.646Z,8764.00
2022-08-14T12:05:38.603Z,8880.00
2022-08-14T12:06:39.620Z,9084.00
2022-08-14T12:07:48.162Z,9200.00
2022-08-14T12:08:38.622Z,9176.00
2022-08-14T12:09:38.569Z,9164.00
2022-08-14T12:10:41.136Z,9216.00
2022-08-14T12:11:44.124Z,9284.00
2022-08-14T12:12:38.551Z,9228.00
2022-08-14T12:13:38.540Z,9072.00
2022-08-14T12:14:40.584Z,8916.00
2022-08-14T12:15:38.529Z,8884.00
2022-08-14T12:16:38.574Z,8952.00
2022-08-14T12:17:49.275Z,9112.00
2022-08-14T12:18:38.499Z,9336.00
2022-08-14T12:19:38.490Z,9724.00
2022-08-14T12:20:38.484Z,9872.00
2022-08-14T12:21:38.496Z,9936.00
2022-08-14T12:22:40.043Z,9800.00
2022-08-14T12:23:38.461Z,9952.00
2022-08-14T12:24:40.072Z,10036.00
2022-08-14T12:25:38.457Z,8672.00
2022-08-14T12:32:06.858Z,10896.00
2022-08-14T12:33:07.361Z,11392.00
2022-08-14T12:34:10.282Z,11560.00
2022-08-14T12:35:06.822Z,11708.00
2022-08-14T12:36:06.828Z,11868.00
2022-08-14T12:37:06.832Z,11884.00
2022-08-14T12:38:06.814Z,12072.00
2022-08-14T12:39:06.791Z,11468.00
2022-08-14T12:40:06.865Z,11500.00
2022-08-14T12:41:07.942Z,9992.00
2022-08-14T12:44:33.309Z,10476.00
2022-08-14T12:45:33.298Z,10588.00
2022-08-14T12:46:33.283Z,9444.00
2022-08-14T12:50:49.857Z,10920.00
2022-08-14T12:51:46.333Z,11516.00
2022-08-14T12:53:11.244Z,12240.00
2022-08-14T12:53:46.304Z,12592.00
2022-08-14T12:55:01.673Z,12676.00
2022-08-14T12:56:18.414Z,12688.00
2022-08-14T12:56:46.281Z,12640.00
2022-08-14T12:57:46.449Z,12236.00
2022-08-14T12:58:51.792Z,12056.00
2022-08-14T12:59:46.252Z,11752.00
2022-08-14T13:01:12.370Z,11328.00
2022-08-14T13:01:59.412Z,11260.00
2022-08-14T13:02:46.398Z,10856.00
2022-08-14T13:03:46.225Z,10308.00
2022-08-14T13:04:46.218Z,9972.00
2022-08-14T13:05:46.210Z,9856.00
2022-08-14T13:06:50.781Z,9792.00
2022-08-14T13:07:46.207Z,9816.00
2022-08-14T13:08:52.845Z,9840.00
2022-08-14T13:09:46.187Z,9760.00
2022-08-14T13:10:52.274Z,9848.00
2022-08-14T13:11:46.194Z,10184.00
2022-08-14T13:13:12.096Z,10484.00
2022-08-14T13:13:46.167Z,10788.00
2022-08-14T13:14:46.160Z,11012.00
2022-08-14T13:15:46.150Z,11348.00
2022-08-14T13:16:50.504Z,11608.00
2022-08-14T13:17:46.134Z,11532.00
2022-08-14T13:18:46.610Z,11604.00
2022-08-14T13:19:46.133Z,11788.00
2022-08-14T13:20:48.127Z,12088.00
2022-08-14T13:22:04.986Z,12236.00
2022-08-14T13:22:46.148Z,12488.00
2022-08-14T13:23:46.104Z,13396.00
2022-08-14T13:24:46.094Z,14720.00
2022-08-14T13:25:55.942Z,16352.00
2022-08-14T13:26:46.512Z,18112.00
2022-08-14T13:27:46.089Z,19776.00
2022-08-14T13:29:02.669Z,21824.00
2022-08-14T13:29:47.053Z,25376.00
2022-08-14T13:30:46.072Z,39328.00
2022-08-14T13:31:46.081Z,55456.00
2022-08-14T13:32:46.159Z,60160.00
2022-08-14T13:33:46.047Z,63968.00
2022-08-14T13:34:46.224Z,39776.00
2022-08-14T13:35:46.040Z,67296.00
2022-08-14T13:36:54.301Z,67680.00
2022-08-14T13:37:46.134Z,69312.00
2022-08-14T13:38:46.034Z,74144.00
2022-08-14T13:39:46.037Z,70752.00
2022-08-14T13:40:46.015Z,73760.00
2022-08-14T13:41:46.038Z,82688.00
2022-08-14T13:42:46.204Z,87360.00
2022-08-14T13:43:49.415Z,94528.00
2022-08-14T13:44:46.012Z,96864.00
2022-08-14T13:46:00.424Z,99104.00
2022-08-14T13:46:46.003Z,96192.00
2022-08-14T13:47:46.699Z,92864.00
2022-08-14T13:48:45.982Z,96064.00
2022-08-14T13:49:56.796Z,96032.00
2022-08-14T13:50:45.980Z,99392.00
2022-08-14T13:51:45.999Z,98688.00
2022-08-14T13:52:59.037Z,105120.00
2022-08-14T13:54:07.091Z,104960.00
2022-08-14T13:54:45.979Z,99840.00
2022-08-14T13:55:45.972Z,101248.00
2022-08-14T13:56:45.975Z,103712.00
2022-08-14T13:57:49.218Z,98752.00
2022-08-14T13:58:47.015Z,96864.00
2022-08-14T13:59:45.957Z,98432.00
2022-08-14T14:00:53.227Z,98784.00
2022-08-14T14:01:46.001Z,99584.00
2022-08-14T14:02:46.148Z,101184.00
2022-08-14T14:03:45.933Z,99648.00
2022-08-14T14:04:46.359Z,96480.00
2022-08-14T14:05:53.405Z,93184.00
2022-08-14T14:06:45.947Z,93536.00
2022-08-14T14:07:45.936Z,92224.00
2022-08-14T14:08:47.875Z,90144.00
2022-08-14T14:09:51.049Z,88992.00
2022-08-14T14:10:45.921Z,90016.00
2022-08-14T14:11:45.934Z,94272.00
2022-08-14T14:12:50.436Z,92288.00
2022-08-14T14:13:46.363Z,93600.00
2022-08-14T14:14:51.374Z,93472.00
2022-08-14T14:15:57.959Z,90496.00
2022-08-14T14:16:45.921Z,87488.00
2022-08-14T14:17:45.909Z,87008.00
2022-08-14T14:18:46.253Z,84512.00
2022-08-14T14:19:45.908Z,84032.00
2022-08-14T14:20:45.915Z,83776.00
2022-08-14T14:21:45.908Z,83264.00
2022-08-14T14:23:02.370Z,85440.00
2022-08-14T14:23:45.900Z,82368.00
2022-08-14T14:24:45.900Z,78208.00
2022-08-14T14:25:51.329Z,54336.00
2022-08-14T14:26:45.899Z,79424.00
2022-08-14T14:27:45.942Z,77728.00
2022-08-14T14:28:45.892Z,73184.00
2022-08-14T14:30:51.876Z,73024.00
2022-08-14T14:31:23.262Z,70976.00
2022-08-14T14:32:23.283Z,68576.00
2022-08-14T14:33:49.007Z,67520.00
2022-08-14T14:34:32.464Z,65280.00
2022-08-14T14:35:32.791Z,68288.00
2022-08-14T14:36:32.461Z,68384.00
2022-08-14T14:37:32.444Z,24352.00
2022-08-14T14:38:32.826Z,17824.00
2022-08-14T14:39:37.470Z,59296.00
2022-08-14T14:44:34.549Z,14896.00
2022-08-14T14:45:53.538Z,60256.00
2022-08-14T14:48:35.417Z,62976.00
2022-08-14T14:49:51.137Z,66880.00
2022-08-14T14:50:35.382Z,63968.00
2022-08-14T14:51:35.394Z,64800.00
2022-08-14T14:52:37.205Z,17184.00
2022-08-14T14:53:38.715Z,17632.00
2022-08-14T14:54:37.624Z,43552.00
2022-08-14T14:55:59.562Z,47392.00
2022-08-14T14:56:49.812Z,39392.00
2022-08-14T14:57:36.362Z,49920.00
2022-08-14T14:58:35.351Z,47936.00
2022-08-14T14:59:35.828Z,41600.00
2022-08-14T15:07:05.610Z,29600.00
2022-08-14T15:08:05.570Z,56544.00
2022-08-14T15:09:08.929Z,60416.00
2022-08-14T15:10:05.571Z,56896.00
2022-08-14T15:11:05.568Z,58848.00
2022-08-14T15:12:15.997Z,55040.00
2022-08-14T15:13:05.669Z,55488.00
2022-08-14T15:14:55.706Z,55392.00
2022-08-14T15:15:08.637Z,56704.00
2022-08-14T15:16:05.545Z,56736.00
2022-08-14T15:17:05.548Z,52384.00
2022-08-14T15:18:07.855Z,31104.00
2022-08-14T15:19:05.529Z,48896.00
2022-08-14T15:20:05.532Z,18496.00
2022-08-14T15:21:05.536Z,22784.00
2022-08-14T15:25:41.529Z,25856.00
2022-08-14T15:29:07.680Z,28064.00
2022-08-14T15:30:07.674Z,39360.00
2022-08-14T15:31:08.158Z,34656.00
2022-08-14T15:32:08.730Z,32000.00
2022-08-14T15:33:07.655Z,29824.00
2022-08-14T15:34:45.884Z,32544.00
2022-08-14T15:35:07.905Z,28928.00
2022-08-14T15:36:24.889Z,29632.00
2022-08-14T15:37:10.899Z,28704.00
2022-08-14T15:38:07.635Z,26048.00
2022-08-14T15:39:07.623Z,26528.00
2022-08-14T15:40:09.846Z,23744.00
2022-08-14T15:41:08.639Z,20960.00
2022-08-14T15:42:14.446Z,15516.00
2022-08-14T15:43:09.029Z,23520.00
2022-08-14T15:44:07.616Z,27296.00
2022-08-14T15:45:07.608Z,26272.00
2022-08-14T15:46:07.593Z,19648.00
2022-08-14T15:47:07.596Z,21984.00
2022-08-14T15:48:07.590Z,24672.00
2022-08-14T15:49:07.575Z,18912.00
2022-08-14T15:55:25.717Z,16544.00
